Petrolia, Pennsylvania
Current Conditions -  °F | °C
As of 11:35 PM on Thursday 18 Dec 2014 (Local Time) from KBTP Reporting Station
Overcast Overcast  
Wind Chill: 18°   Ceiling: 1000
Heat Index: 27°   Visibility: 5mi
Dew Point: 25°   Wind: 8mph
Humidity: 93%   Direction: 260°W
Pressure: 30.14"   Gusts: NA
Location:  41.02°N, 79.72°W
Report Text: KBTP 190435Z AUTO 26007KT 5SM OVC010 M03/M04 A3014 RMK AO1
Loading
Personal Weather Stations






























Interactive Weather Map New forecast layout! Learn more

10-Day Weather Forecast

Advertisements
Track Severe Weather on mobile